createdAt,value
2023-01-11T00:00:46.267Z,50.47
2023-01-11T00:03:14.361Z,46.70
2023-01-11T00:05:43.627Z,44.07
2023-01-11T00:08:12.220Z,41.83
2023-01-11T00:10:42.117Z,48.23
2023-01-11T00:13:10.110Z,46.20
2023-01-11T00:15:38.407Z,46.87
2023-01-11T00:18:06.608Z,47.60
2023-01-11T00:20:34.591Z,52.93
2023-01-11T00:23:02.757Z,52.43
2023-01-11T00:25:30.891Z,52.67
2023-01-11T00:28:00.268Z,53.27
2023-01-11T00:30:28.459Z,53.33
2023-01-11T00:32:57.532Z,52.40
2023-01-11T00:35:25.928Z,52.40
2023-01-11T00:37:54.607Z,62.70
2023-01-11T00:40:24.070Z,59.53
2023-01-11T00:43:10.205Z,53.73
2023-01-11T00:45:57.539Z,50.93
2023-01-11T00:48:25.592Z,47.57
2023-01-11T00:50:58.090Z,47.50
2023-01-11T00:53:26.094Z,50.53
2023-01-11T00:55:54.055Z,53.13
2023-01-11T00:58:22.064Z,48.70
2023-01-11T01:00:51.417Z,44.83
2023-01-11T01:03:19.345Z,47.27
2023-01-11T01:05:47.360Z,46.03
2023-01-11T01:08:15.475Z,41.33
2023-01-11T01:10:43.439Z,44.83
2023-01-11T01:13:35.398Z,48.20
2023-01-11T01:16:05.065Z,48.67
2023-01-11T01:18:33.075Z,46.87
2023-01-11T01:21:01.029Z,46.33
2023-01-11T01:23:28.988Z,45.00
2023-01-11T01:25:57.336Z,53.13
2023-01-11T01:28:25.345Z,60.63
2023-01-11T01:30:53.786Z,54.90
2023-01-11T01:33:23.685Z,45.97
2023-01-11T01:35:51.881Z,43.60
2023-01-11T01:38:19.888Z,47.27
2023-01-11T01:40:49.568Z,44.13
2023-01-11T01:43:18.850Z,47.17
2023-01-11T01:45:50.024Z,43.23
2023-01-11T01:48:23.093Z,46.83
2023-01-11T01:50:56.679Z,43.50
2023-01-11T01:53:29.882Z,43.30
2023-01-11T01:56:01.845Z,40.93
2023-01-11T01:58:36.829Z,38.33
2023-01-11T02:01:19.171Z,37.70
2023-01-11T02:03:48.278Z,43.17
2023-01-11T02:06:17.793Z,40.07
2023-01-11T02:08:49.982Z,42.30
2023-01-11T02:11:31.083Z,49.00
2023-01-11T02:14:02.141Z,48.07
2023-01-11T02:16:30.344Z,47.90
2023-01-11T02:18:59.499Z,40.90
2023-01-11T02:21:42.338Z,43.90
2023-01-11T02:24:44.510Z,49.30
2023-01-11T02:27:30.467Z,49.97
2023-01-11T02:30:13.715Z,48.30
2023-01-11T02:32:53.991Z,47.53
2023-01-11T02:35:30.751Z,57.67
2023-01-11T02:38:06.344Z,50.50
2023-01-11T02:40:40.399Z,51.27
2023-01-11T02:43:32.539Z,55.00
2023-01-11T02:46:06.655Z,55.17
2023-01-11T02:48:47.003Z,56.10
2023-01-11T02:51:21.286Z,48.67
2023-01-11T02:53:54.716Z,52.37
2023-01-11T02:56:24.966Z,54.57
2023-01-11T02:58:55.471Z,53.83
2023-01-11T03:01:25.724Z,58.87
2023-01-11T03:03:54.737Z,57.30
2023-01-11T03:06:26.367Z,59.53
2023-01-11T03:09:16.613Z,60.83
2023-01-11T03:12:31.046Z,60.00
2023-01-11T03:15:10.105Z,58.87
2023-01-11T03:17:52.097Z,53.07
2023-01-11T03:20:26.424Z,54.97
2023-01-11T03:23:09.259Z,51.40
2023-01-11T03:25:47.269Z,53.70
2023-01-11T03:28:18.999Z,57.17
2023-01-11T03:30:53.890Z,56.20
2023-01-11T03:33:29.310Z,51.43
2023-01-11T03:36:01.963Z,51.40
2023-01-11T03:38:36.926Z,52.77
2023-01-11T03:41:09.131Z,52.97
2023-01-11T03:43:39.889Z,55.47
2023-01-11T03:46:11.512Z,53.20
2023-01-11T03:48:46.839Z,58.80
2023-01-11T03:51:21.198Z,51.23
2023-01-11T03:53:51.274Z,54.50
2023-01-11T03:56:23.783Z,49.90
2023-01-11T03:58:51.859Z,52.73
2023-01-11T04:01:19.906Z,56.90
2023-01-11T04:03:49.298Z,51.03
2023-01-11T04:06:18.813Z,51.27
2023-01-11T04:08:46.842Z,48.50
2023-01-11T04:11:15.349Z,49.90
2023-01-11T04:13:43.383Z,48.43
2023-01-11T04:16:11.408Z,54.80
2023-01-11T04:18:39.389Z,58.83
2023-01-11T04:21:08.819Z,50.30
2023-01-11T04:23:37.614Z,51.97
2023-01-11T04:26:05.893Z,56.43
2023-01-11T04:28:34.754Z,48.93
2023-01-11T04:31:02.794Z,48.13
2023-01-11T04:33:31.065Z,53.23
2023-01-11T04:35:59.007Z,49.60
2023-01-11T04:38:28.349Z,53.23
2023-01-11T04:41:16.322Z,49.87
2023-01-11T04:43:43.316Z,49.10
2023-01-11T04:46:11.426Z,48.67
2023-01-11T04:48:40.272Z,54.30
2023-01-11T04:51:08.881Z,54.00
2023-01-11T04:53:38.276Z,55.70
2023-01-11T04:56:07.781Z,52.77
2023-01-11T04:58:38.186Z,54.77
2023-01-11T05:01:10.996Z,50.53
2023-01-11T05:03:39.310Z,60.20
2023-01-11T05:06:07.806Z,57.27
2023-01-11T05:08:35.887Z,54.40
2023-01-11T05:11:06.801Z,53.50
2023-01-11T05:13:43.639Z,55.07
2023-01-11T05:16:13.939Z,52.77
2023-01-11T05:18:43.219Z,54.77
2023-01-11T05:21:13.663Z,55.77
2023-01-11T05:23:42.976Z,59.07
2023-01-11T05:26:14.696Z,57.33
2023-01-11T05:28:42.776Z,55.67
2023-01-11T05:31:10.829Z,58.23
2023-01-11T05:33:38.823Z,62.77
2023-01-11T05:36:09.447Z,54.97
2023-01-11T05:38:37.490Z,55.87
2023-01-11T05:41:07.322Z,60.67
2023-01-11T05:43:57.659Z,50.97
2023-01-11T05:46:25.543Z,53.17
2023-01-11T05:48:55.439Z,53.20
2023-01-11T05:51:24.040Z,51.73
2023-01-11T05:53:53.032Z,55.77
2023-01-11T05:56:21.299Z,56.30
2023-01-11T05:58:51.495Z,54.83
2023-01-11T06:01:21.557Z,52.03
2023-01-11T06:03:50.109Z,49.17
2023-01-11T06:06:18.782Z,48.87
2023-01-11T06:08:46.962Z,46.90
2023-01-11T06:11:15.767Z,50.83
2023-01-11T06:13:44.140Z,50.63
2023-01-11T06:16:15.319Z,47.67
2023-01-11T06:18:45.114Z,53.80
2023-01-11T06:21:14.307Z,47.80
2023-01-11T06:23:44.339Z,53.77
2023-01-11T06:26:14.542Z,50.37
2023-01-11T06:28:43.365Z,51.80
2023-01-11T06:31:11.594Z,50.47
2023-01-11T06:33:41.025Z,47.33
2023-01-11T06:36:11.246Z,53.47
2023-01-11T06:38:39.324Z,54.47
2023-01-11T06:41:09.391Z,57.67
2023-01-11T06:43:38.515Z,53.20
2023-01-11T06:46:06.820Z,56.00
2023-01-11T06:48:34.869Z,55.27
2023-01-11T06:51:04.204Z,78.20
2023-01-11T06:53:32.180Z,68.97
2023-01-11T06:56:00.213Z,63.93
2023-01-11T06:58:28.798Z,62.30
2023-01-11T07:00:58.259Z,66.53
2023-01-11T07:03:27.441Z,64.33
2023-01-11T07:05:57.264Z,61.97
2023-01-11T07:08:27.127Z,64.43
2023-01-11T07:10:55.543Z,67.43
2023-01-11T07:13:23.752Z,63.50
2023-01-11T07:15:54.226Z,64.73
2023-01-11T07:18:22.571Z,60.70
2023-01-11T07:20:52.246Z,62.43
2023-01-11T07:23:20.466Z,64.40
2023-01-11T07:25:50.710Z,65.70
2023-01-11T07:28:18.731Z,71.53
2023-01-11T07:30:58.324Z,73.70
2023-01-11T07:33:28.043Z,64.30
2023-01-11T07:35:57.995Z,74.13
2023-01-11T07:38:26.491Z,67.23
2023-01-11T07:40:56.111Z,62.47
2023-01-11T07:43:23.771Z,67.17
2023-01-11T07:45:53.819Z,70.23
2023-01-11T07:48:25.231Z,69.13
2023-01-11T07:50:54.335Z,67.23
2023-01-11T07:53:25.579Z,69.67
2023-01-11T07:55:55.567Z,70.77
2023-01-11T07:58:23.838Z,68.27
2023-01-11T08:00:51.915Z,68.67
2023-01-11T08:03:20.058Z,67.07
2023-01-11T08:05:51.095Z,69.67
2023-01-11T08:08:19.066Z,70.77
2023-01-11T08:10:47.157Z,66.93
2023-01-11T08:13:34.252Z,73.50
2023-01-11T08:16:02.333Z,68.37
2023-01-11T08:18:30.377Z,74.90
2023-01-11T08:20:58.368Z,68.40
2023-01-11T08:23:27.199Z,62.13
2023-01-11T08:25:57.884Z,64.90
2023-01-11T08:28:27.248Z,67.53
2023-01-11T08:30:55.307Z,68.63
2023-01-11T08:33:23.322Z,69.23
2023-01-11T08:35:51.303Z,71.70
2023-01-11T08:38:19.276Z,76.90
2023-01-11T08:40:47.318Z,72.90
2023-01-11T08:43:15.378Z,78.80
2023-01-11T08:45:44.744Z,71.00
2023-01-11T08:48:13.318Z,65.00
2023-01-11T08:50:41.362Z,58.97
2023-01-11T08:53:11.531Z,61.80
2023-01-11T08:55:41.800Z,58.23
2023-01-11T08:58:09.797Z,52.20
2023-01-11T09:00:37.825Z,54.60
2023-01-11T09:03:07.236Z,50.83
2023-01-11T09:05:35.289Z,58.27
2023-01-11T09:08:03.268Z,55.67
2023-01-11T09:10:31.381Z,52.83
2023-01-11T09:12:59.676Z,49.10
2023-01-11T09:15:28.331Z,53.83
2023-01-11T09:17:56.326Z,54.03
2023-01-11T09:20:25.661Z,52.37
2023-01-11T09:22:54.325Z,49.57
2023-01-11T09:25:22.429Z,54.77
2023-01-11T09:27:51.475Z,48.43
2023-01-11T09:30:21.421Z,49.03
2023-01-11T09:32:50.274Z,48.20
2023-01-11T09:35:19.273Z,47.20
2023-01-11T09:37:51.497Z,46.40
2023-01-11T09:40:21.826Z,47.73
2023-01-11T09:42:52.770Z,47.87
2023-01-11T09:45:24.025Z,50.03
2023-01-11T09:48:00.427Z,49.10
2023-01-11T09:50:31.304Z,46.10
2023-01-11T09:53:04.840Z,47.37
2023-01-11T09:55:36.515Z,49.63
2023-01-11T09:58:21.774Z,44.53
2023-01-11T10:00:56.947Z,51.13
2023-01-11T10:04:11.881Z,50.27
2023-01-11T10:06:52.160Z,55.53
2023-01-11T10:18:31.576Z,48.13
2023-01-11T10:18:52.931Z,50.93
2023-01-11T10:21:22.866Z,44.67
2023-01-11T10:23:55.118Z,47.97
2023-01-11T10:26:29.152Z,46.60
2023-01-11T10:29:22.330Z,44.67
2023-01-11T10:32:11.110Z,44.00
2023-01-11T10:34:59.803Z,40.53
2023-01-11T10:37:48.161Z,43.97
2023-01-11T10:40:39.912Z,46.97
2023-01-11T10:43:17.097Z,51.67
2023-01-11T10:45:50.433Z,45.33
2023-01-11T10:48:24.477Z,44.40
2023-01-11T10:51:01.696Z,41.43
2023-01-11T10:53:36.119Z,41.97
2023-01-11T10:56:16.341Z,38.10
2023-01-11T10:59:15.872Z,41.70
2023-01-11T11:01:54.373Z,37.70
2023-01-11T11:04:50.911Z,44.40
2023-01-11T11:07:25.250Z,41.57
2023-01-11T11:10:03.915Z,36.37
2023-01-11T11:12:34.280Z,34.50
2023-01-11T11:15:10.121Z,46.03
2023-01-11T11:17:40.934Z,39.23
2023-01-11T11:20:15.341Z,38.20
2023-01-11T11:22:45.043Z,37.10
2023-01-11T11:25:18.367Z,36.90
2023-01-11T11:27:49.799Z,39.23
2023-01-11T11:30:29.292Z,37.50
2023-01-11T11:33:02.412Z,32.13
2023-01-11T11:35:37.342Z,30.07
2023-01-11T11:38:06.177Z,29.33
2023-01-11T11:40:36.516Z,29.73
2023-01-11T11:43:13.320Z,33.23
2023-01-11T11:45:54.136Z,28.73
2023-01-11T11:48:22.890Z,31.73
2023-01-11T11:50:52.637Z,31.67
2023-01-11T11:53:39.890Z,28.63
2023-01-11T11:56:16.576Z,24.23
2023-01-11T11:58:45.186Z,21.77
2023-01-11T12:01:28.717Z,23.93
2023-01-11T12:04:00.372Z,23.80
2023-01-11T12:06:30.530Z,30.70
2023-01-11T12:09:01.831Z,31.67
2023-01-11T12:11:34.899Z,32.60
2023-01-11T12:14:07.358Z,32.70
2023-01-11T12:16:39.533Z,32.40
2023-01-11T12:19:34.868Z,38.17
2023-01-11T12:22:21.610Z,35.20
2023-01-11T12:25:03.646Z,35.33
2023-01-11T12:27:40.659Z,36.40
2023-01-11T12:30:20.376Z,41.87
2023-01-11T12:33:20.545Z,40.83
2023-01-11T12:36:01.318Z,40.93
2023-01-11T12:38:44.729Z,44.17
2023-01-11T12:41:47.700Z,44.67
2023-01-11T12:44:31.090Z,44.13
2023-01-11T12:47:17.954Z,43.70
2023-01-11T12:49:54.961Z,39.00
2023-01-11T12:52:42.142Z,41.23
2023-01-11T12:55:38.868Z,37.77
2023-01-11T12:58:14.331Z,45.37
2023-01-11T13:01:23.124Z,40.17
2023-01-11T13:04:17.927Z,39.60
2023-01-11T13:06:56.623Z,36.73
2023-01-11T13:09:39.503Z,36.07
2023-01-11T13:12:15.123Z,29.37
2023-01-11T13:15:00.334Z,27.80
2023-01-11T13:17:35.782Z,25.57
2023-01-11T13:20:18.854Z,22.70
2023-01-11T13:22:51.237Z,22.90
2023-01-11T13:25:24.564Z,19.80
2023-01-11T13:27:53.731Z,20.67
2023-01-11T13:30:24.523Z,21.60
2023-01-11T13:32:57.679Z,19.87
2023-01-11T13:35:36.775Z,18.23
2023-01-11T13:38:14.746Z,19.27
2023-01-11T13:40:47.623Z,20.30
2023-01-11T13:43:21.180Z,20.60
2023-01-11T13:45:53.387Z,20.27
2023-01-11T13:48:27.632Z,19.77
2023-01-11T13:51:00.689Z,19.70
2023-01-11T13:53:37.655Z,19.63
2023-01-11T13:56:13.276Z,19.27
2023-01-11T13:58:53.723Z,18.13
2023-01-11T14:01:30.411Z,21.60
2023-01-11T14:04:03.781Z,26.00
2023-01-11T14:06:49.211Z,27.27
2023-01-11T14:09:31.258Z,23.17
2023-01-11T14:12:05.901Z,20.60
2023-01-11T14:14:50.468Z,21.90
2023-01-11T14:17:34.002Z,21.20
2023-01-11T14:20:08.549Z,20.53
2023-01-11T14:22:43.067Z,20.60
2023-01-11T14:25:21.804Z,24.40
2023-01-11T14:28:19.865Z,30.43
2023-01-11T14:31:15.566Z,36.80
2023-01-11T14:34:34.900Z,36.50
2023-01-11T14:37:25.943Z,38.30
2023-01-11T14:40:29.404Z,45.73
2023-01-11T14:43:17.655Z,42.10
2023-01-11T14:45:56.773Z,44.07
2023-01-11T14:48:37.655Z,45.13
2023-01-11T14:51:32.556Z,49.17
2023-01-11T14:54:06.645Z,50.00
2023-01-11T14:56:50.309Z,51.60
2023-01-11T14:59:35.597Z,57.43
2023-01-11T15:02:33.477Z,58.70
2023-01-11T15:05:09.078Z,68.73
2023-01-11T15:07:40.987Z,71.87
2023-01-11T15:10:40.064Z,73.43
2023-01-11T15:13:15.950Z,71.47
2023-01-11T15:16:01.673Z,80.70
2023-01-11T15:18:30.344Z,67.97
2023-01-11T15:21:03.631Z,68.63
2023-01-11T15:23:37.514Z,63.13
2023-01-11T15:26:07.963Z,57.40
2023-01-11T15:28:45.588Z,59.73
2023-01-11T15:31:33.872Z,56.90
2023-01-11T15:34:04.856Z,64.80
2023-01-11T15:36:53.263Z,61.17
2023-01-11T15:39:33.030Z,61.13
2023-01-11T15:42:27.769Z,62.47
2023-01-11T15:45:30.865Z,70.53
2023-01-11T15:48:29.667Z,66.70
2023-01-11T15:51:30.396Z,66.73
2023-01-11T15:54:27.878Z,64.80
2023-01-11T15:57:25.863Z,70.33
2023-01-11T16:00:25.828Z,63.57
2023-01-11T16:03:25.464Z,63.70
2023-01-11T16:06:02.895Z,64.80
2023-01-11T16:08:39.931Z,64.43
2023-01-11T16:11:16.810Z,63.13
2023-01-11T16:13:56.797Z,64.43
2023-01-11T16:16:29.217Z,62.80
2023-01-11T16:19:05.008Z,68.97
2023-01-11T16:21:35.699Z,64.93
2023-01-11T16:24:07.397Z,71.30
2023-01-11T16:26:36.696Z,70.80
2023-01-11T16:29:13.727Z,71.10
2023-01-11T16:31:59.116Z,71.53
2023-01-11T16:34:30.101Z,66.60
2023-01-11T16:36:58.489Z,68.03
2023-01-11T16:39:30.062Z,65.87
2023-01-11T16:42:01.672Z,68.70
2023-01-11T16:44:41.704Z,64.30
2023-01-11T16:47:15.460Z,63.33
2023-01-11T16:49:49.109Z,67.63
2023-01-11T16:52:39.084Z,66.50
2023-01-11T16:55:29.612Z,62.70
2023-01-11T16:58:00.892Z,62.17
2023-01-11T17:00:36.291Z,56.50
2023-01-11T17:03:21.601Z,61.43
2023-01-11T17:06:03.395Z,65.40
2023-01-11T17:08:34.891Z,70.57
2023-01-11T17:11:07.068Z,69.27
2023-01-11T17:14:03.238Z,67.80
2023-01-11T17:16:36.849Z,62.13
2023-01-11T17:19:10.299Z,58.10
2023-01-11T17:21:39.755Z,59.20
2023-01-11T17:24:08.165Z,61.10
2023-01-11T17:26:44.842Z,63.90
2023-01-11T17:29:18.039Z,66.60
2023-01-11T17:31:46.238Z,68.33
2023-01-11T17:34:20.435Z,77.37
2023-01-11T17:36:50.324Z,69.50
2023-01-11T17:39:25.235Z,68.30
2023-01-11T17:42:11.587Z,70.47
2023-01-11T17:44:58.383Z,65.07
2023-01-11T17:47:26.643Z,71.53
2023-01-11T17:49:56.916Z,72.00
2023-01-11T17:52:27.780Z,68.90
2023-01-11T17:55:04.100Z,70.40
2023-01-11T17:57:32.759Z,67.00
2023-01-11T18:00:34.149Z,62.83
2023-01-11T18:03:08.454Z,57.30
2023-01-11T18:05:36.836Z,56.53
2023-01-11T18:08:09.721Z,57.80
2023-01-11T18:10:40.374Z,59.40
2023-01-11T18:13:25.657Z,57.30
2023-01-11T18:15:53.753Z,57.17
2023-01-11T18:18:42.689Z,62.73
2023-01-11T18:21:39.950Z,56.43
2023-01-11T18:24:29.239Z,60.87
2023-01-11T18:27:08.938Z,58.47
2023-01-11T18:29:51.095Z,63.23
2023-01-11T18:32:19.885Z,63.80
2023-01-11T18:34:51.274Z,62.13
2023-01-11T18:37:19.912Z,53.27
2023-01-11T18:39:51.016Z,59.23
2023-01-11T18:42:22.288Z,63.40
2023-01-11T18:44:51.336Z,64.63
2023-01-11T18:47:22.188Z,62.37
2023-01-11T18:49:51.428Z,66.70
2023-01-11T18:52:20.685Z,60.50
2023-01-11T18:54:50.041Z,58.80
2023-01-11T18:57:18.068Z,59.23
2023-01-11T18:59:46.810Z,57.93
2023-01-11T19:02:22.083Z,55.67
2023-01-11T19:04:50.141Z,53.10
2023-01-11T19:07:18.493Z,53.37
2023-01-11T19:09:46.524Z,58.07
2023-01-11T19:12:16.053Z,58.53
2023-01-11T19:14:44.372Z,55.63
2023-01-11T19:17:13.438Z,58.97
2023-01-11T19:19:41.636Z,53.63
2023-01-11T19:22:11.237Z,54.27
2023-01-11T19:24:39.490Z,55.03
2023-01-11T19:27:07.986Z,64.07
2023-01-11T19:29:37.350Z,65.33
2023-01-11T19:32:05.728Z,80.73
2023-01-11T19:34:34.087Z,79.87
2023-01-11T19:37:02.687Z,79.43
2023-01-11T19:39:30.640Z,73.20
2023-01-11T19:41:59.995Z,80.80
2023-01-11T19:44:31.075Z,72.87
2023-01-11T19:47:10.891Z,61.77
2023-01-11T19:49:40.262Z,65.47
2023-01-11T19:52:12.576Z,59.97
2023-01-11T19:54:41.997Z,56.97
2023-01-11T19:57:11.340Z,53.93
2023-01-11T19:59:39.333Z,51.60
2023-01-11T20:02:08.785Z,49.83
2023-01-11T20:04:37.252Z,50.73
2023-01-11T20:07:05.509Z,46.40
2023-01-11T20:09:33.730Z,41.33
2023-01-11T20:12:01.763Z,40.47
2023-01-11T20:14:29.756Z,35.97
2023-01-11T20:16:57.769Z,35.13
2023-01-11T20:19:27.155Z,37.40
2023-01-11T20:21:55.968Z,39.40
2023-01-11T20:24:29.602Z,39.37
2023-01-11T20:26:59.274Z,33.37
2023-01-11T20:29:27.493Z,32.70
2023-01-11T20:31:55.807Z,33.13
2023-01-11T20:34:26.389Z,35.70
2023-01-11T20:36:54.436Z,33.47
2023-01-11T20:39:22.438Z,33.70
2023-01-11T20:41:51.030Z,29.73
2023-01-11T20:44:20.561Z,29.83
2023-01-11T20:46:49.312Z,31.20
2023-01-11T20:49:18.236Z,33.40
2023-01-11T20:51:48.181Z,28.83
2023-01-11T20:54:17.269Z,24.03
2023-01-11T20:56:46.543Z,28.23
2023-01-11T20:59:16.528Z,22.63
2023-01-11T21:01:44.627Z,22.33
2023-01-11T21:04:13.769Z,26.93
2023-01-11T21:06:43.626Z,29.40
2023-01-11T21:09:15.968Z,22.97
2023-01-11T21:11:44.179Z,22.60
2023-01-11T21:14:13.290Z,22.20
2023-01-11T21:16:42.835Z,21.03
2023-01-11T21:19:13.525Z,19.07
2023-01-11T21:21:42.107Z,18.90
2023-01-11T21:24:14.953Z,23.03
2023-01-11T21:26:45.571Z,21.97
2023-01-11T21:29:13.766Z,25.87
2023-01-11T21:31:42.246Z,19.27
2023-01-11T21:34:12.246Z,20.83
2023-01-11T21:36:41.197Z,24.97
2023-01-11T21:39:09.402Z,19.00
2023-01-11T21:41:59.756Z,18.97
2023-01-11T21:44:31.933Z,19.50
2023-01-11T21:47:00.413Z,17.70
2023-01-11T21:49:28.781Z,19.20
2023-01-11T21:51:56.771Z,20.17
2023-01-11T21:54:25.029Z,18.03
2023-01-11T21:56:54.389Z,16.97
2023-01-11T21:59:22.522Z,16.10
2023-01-11T22:01:50.526Z,16.10
2023-01-11T22:04:19.931Z,17.40
2023-01-11T22:06:51.611Z,18.80
2023-01-11T22:09:20.288Z,17.27
2023-01-11T22:11:48.574Z,14.80
2023-01-11T22:14:17.905Z,16.77
2023-01-11T22:16:46.035Z,15.83
2023-01-11T22:19:14.988Z,18.00
2023-01-11T22:21:43.018Z,18.50
2023-01-11T22:24:13.159Z,12.90
2023-01-11T22:26:41.725Z,14.27
2023-01-11T22:29:14.966Z,16.17
2023-01-11T22:31:47.283Z,15.73
2023-01-11T22:34:15.909Z,15.87
2023-01-11T22:36:44.476Z,15.90
2023-01-11T22:39:13.494Z,12.40
2023-01-11T22:41:41.516Z,13.37
2023-01-11T22:44:10.194Z,13.17
2023-01-11T22:46:38.615Z,16.27
2023-01-11T22:49:09.439Z,16.13
2023-01-11T22:51:37.589Z,13.73
2023-01-11T22:54:06.202Z,12.60
2023-01-11T22:56:34.913Z,11.67
2023-01-11T22:59:03.093Z,9.53
2023-01-11T23:01:32.938Z,11.07
2023-01-11T23:04:01.938Z,11.63
2023-01-11T23:06:32.648Z,12.67
2023-01-11T23:09:01.025Z,12.77
2023-01-11T23:11:49.077Z,13.10
2023-01-11T23:14:18.465Z,11.27
2023-01-11T23:16:48.021Z,13.23
2023-01-11T23:19:18.451Z,12.30
2023-01-11T23:21:48.751Z,14.80
2023-01-11T23:24:17.719Z,15.00
2023-01-11T23:26:46.124Z,15.77
2023-01-11T23:29:14.283Z,13.67
2023-01-11T23:31:43.681Z,12.37
2023-01-11T23:34:12.736Z,12.57
2023-01-11T23:36:42.793Z,14.03
2023-01-11T23:39:15.326Z,12.00
2023-01-11T23:42:01.138Z,11.10
2023-01-11T23:44:29.271Z,11.97
2023-01-11T23:47:14.856Z,12.57
2023-01-11T23:49:44.125Z,13.27
2023-01-11T23:52:12.218Z,11.33
2023-01-11T23:54:41.566Z,12.67
2023-01-11T23:57:12.327Z,10.73
2023-01-11T23:59:41.576Z,12.33
